createdAt,value
2018-11-03T00:00:18.400Z,7.67
2018-11-03T00:02:48.088Z,7.37
2018-11-03T00:05:17.453Z,7.53
2018-11-03T00:07:47.205Z,6.30
2018-11-03T00:10:16.446Z,7.13
2018-11-03T00:12:45.662Z,9.03
2018-11-03T00:15:14.928Z,8.90
2018-11-03T00:17:44.162Z,7.77
2018-11-03T00:20:13.409Z,8.23
2018-11-03T00:22:43.002Z,7.90
2018-11-03T00:25:12.224Z,12.53
2018-11-03T00:27:41.466Z,9.20
2018-11-03T00:30:12.529Z,10.23
2018-11-03T00:32:42.017Z,9.63
2018-11-03T00:35:11.716Z,9.27
2018-11-03T00:37:40.961Z,7.87
2018-11-03T00:40:12.704Z,8.13
2018-11-03T00:42:42.633Z,8.63
2018-11-03T00:45:12.922Z,13.13
2018-11-03T00:47:43.110Z,10.53
2018-11-03T00:50:14.608Z,7.60
2018-11-03T00:52:44.523Z,9.70
2018-11-03T00:55:14.412Z,8.20
2018-11-03T00:57:43.817Z,8.20
2018-11-03T01:00:15.194Z,7.60
2018-11-03T01:02:45.592Z,8.93
2018-11-03T01:05:14.923Z,8.17
2018-11-03T01:07:44.732Z,6.90
2018-11-03T01:10:14.078Z,7.10
2018-11-03T01:12:43.259Z,6.83
2018-11-03T01:15:13.753Z,7.00
2018-11-03T01:17:43.244Z,7.40
2018-11-03T01:20:14.410Z,7.57
2018-11-03T01:22:44.071Z,8.60
2018-11-03T01:25:13.291Z,7.60
2018-11-03T01:27:42.507Z,7.70
2018-11-03T01:30:14.260Z,7.80
2018-11-03T01:32:43.516Z,8.27
2018-11-03T01:35:12.756Z,6.77
2018-11-03T01:37:41.959Z,7.63
2018-11-03T01:40:12.602Z,8.80
2018-11-03T01:42:41.858Z,7.87
2018-11-03T01:45:11.114Z,7.40
2018-11-03T01:47:40.307Z,12.27
2018-11-03T01:50:11.530Z,7.83
2018-11-03T01:52:41.383Z,8.97
2018-11-03T01:55:10.839Z,7.17
2018-11-03T01:57:40.099Z,8.60
2018-11-03T02:00:10.608Z,7.37
2018-11-03T02:02:39.867Z,6.93
2018-11-03T02:05:09.899Z,9.17
2018-11-03T02:07:39.327Z,12.40
2018-11-03T02:10:09.548Z,11.20
2018-11-03T02:12:38.878Z,17.90
2018-11-03T02:15:08.503Z,9.50
2018-11-03T02:17:37.982Z,10.50
2018-11-03T02:20:08.470Z,10.27
2018-11-03T02:22:38.572Z,9.27
2018-11-03T02:25:08.216Z,10.43
2018-11-03T02:27:37.417Z,9.50
2018-11-03T02:30:07.638Z,11.10
2018-11-03T02:32:36.812Z,10.77
2018-11-03T02:35:06.728Z,9.90
2018-11-03T02:37:35.935Z,9.83
2018-11-03T02:40:06.652Z,10.57
2018-11-03T02:42:35.838Z,9.63
2018-11-03T02:45:06.420Z,11.70
2018-11-03T02:47:35.639Z,8.50
2018-11-03T02:50:06.207Z,8.63
2018-11-03T02:52:35.431Z,10.30
2018-11-03T02:55:05.106Z,9.70
2018-11-03T02:57:34.724Z,8.13
2018-11-03T03:00:04.576Z,19.13
2018-11-03T03:02:33.799Z,10.50
2018-11-03T03:05:03.016Z,8.10
2018-11-03T03:07:32.475Z,8.33
2018-11-03T03:10:01.690Z,7.77
2018-11-03T03:12:31.007Z,8.13
2018-11-03T03:15:00.244Z,8.57
2018-11-03T03:17:29.387Z,7.93
2018-11-03T03:19:58.587Z,8.53
2018-11-03T03:22:27.795Z,8.40
2018-11-03T03:24:56.988Z,8.30
2018-11-03T03:27:26.195Z,8.10
2018-11-03T03:29:55.576Z,7.53
2018-11-03T03:32:24.793Z,11.60
2018-11-03T03:34:53.947Z,7.30
2018-11-03T03:37:23.195Z,8.50
2018-11-03T03:39:52.512Z,7.53
2018-11-03T03:42:21.848Z,7.60
2018-11-03T03:44:51.051Z,7.50
2018-11-03T03:47:20.224Z,7.40
2018-11-03T03:49:49.418Z,12.50
2018-11-03T03:52:18.975Z,10.90
2018-11-03T03:54:48.190Z,8.93
2018-11-03T03:57:17.383Z,7.70
2018-11-03T03:59:46.964Z,6.80
2018-11-03T04:02:16.141Z,7.43
2018-11-03T04:04:45.328Z,7.17
2018-11-03T04:07:14.591Z,7.37
2018-11-03T04:09:43.764Z,10.00
2018-11-03T04:12:12.940Z,7.50
2018-11-03T04:14:42.393Z,7.87
2018-11-03T04:17:11.567Z,7.63
2018-11-03T04:19:40.767Z,8.83
2018-11-03T04:22:09.976Z,7.57
2018-11-03T04:24:39.173Z,8.30
2018-11-03T04:27:08.401Z,8.27
2018-11-03T04:29:37.592Z,9.07
2018-11-03T04:32:06.777Z,9.60
2018-11-03T04:34:35.965Z,9.33
2018-11-03T04:37:05.391Z,8.53
2018-11-03T04:39:34.568Z,7.80
2018-11-03T04:42:03.815Z,8.93
2018-11-03T04:44:33.022Z,9.17
2018-11-03T04:47:02.479Z,9.63
2018-11-03T04:49:31.652Z,7.43
2018-11-03T04:52:01.047Z,10.77
2018-11-03T04:54:30.244Z,7.53
2018-11-03T04:56:59.409Z,7.57
2018-11-03T04:59:28.866Z,9.37
2018-11-03T05:01:58.286Z,8.47
2018-11-03T05:04:27.503Z,7.90
2018-11-03T05:06:56.727Z,8.53
2018-11-03T05:09:25.941Z,8.03
2018-11-03T05:11:55.091Z,7.27
2018-11-03T05:14:24.299Z,7.57
2018-11-03T05:16:54.025Z,7.83
2018-11-03T05:19:23.223Z,14.10
2018-11-03T05:21:52.596Z,8.80
2018-11-03T05:24:21.760Z,11.67
2018-11-03T05:26:50.951Z,8.70
2018-11-03T05:29:20.157Z,8.27
2018-11-03T05:31:49.504Z,8.10
2018-11-03T05:34:18.686Z,9.00
2018-11-03T05:36:47.897Z,8.23
2018-11-03T05:39:17.094Z,14.00
2018-11-03T05:41:46.258Z,10.80
2018-11-03T05:44:15.696Z,8.00
2018-11-03T05:46:44.971Z,8.03
2018-11-03T05:49:14.059Z,10.10
2018-11-03T05:51:43.275Z,8.60
2018-11-03T05:54:12.445Z,8.30
2018-11-03T05:56:41.627Z,8.73
2018-11-03T05:59:10.847Z,10.73
2018-11-03T06:01:40.037Z,9.27
2018-11-03T06:04:09.515Z,10.10
2018-11-03T06:06:39.076Z,10.37
2018-11-03T06:09:09.668Z,8.27
2018-11-03T06:11:38.848Z,8.60
2018-11-03T06:14:08.080Z,9.43
2018-11-03T06:16:37.259Z,9.17
2018-11-03T06:19:06.311Z,9.50
2018-11-03T06:21:35.587Z,15.73
2018-11-03T06:24:05.259Z,10.63
2018-11-03T06:26:34.457Z,10.07
2018-11-03T06:29:04.108Z,8.67
2018-11-03T06:31:33.280Z,11.13
2018-11-03T06:34:02.650Z,10.10
2018-11-03T06:36:31.903Z,9.83
2018-11-03T06:39:01.116Z,14.67
2018-11-03T06:41:30.405Z,9.77
2018-11-03T06:43:59.648Z,11.53
2018-11-03T06:46:28.971Z,11.57
2018-11-03T06:49:03.631Z,17.90
2018-11-03T06:51:33.003Z,9.53
2018-11-03T06:54:02.940Z,10.50
2018-11-03T06:56:33.011Z,9.83
2018-11-03T06:59:02.379Z,12.20
2018-11-03T07:01:31.752Z,10.93
2018-11-03T07:04:01.048Z,9.97
2018-11-03T07:06:30.643Z,12.27
2018-11-03T07:08:59.836Z,14.40
2018-11-03T07:11:29.441Z,10.60
2018-11-03T07:13:58.636Z,13.03
2018-11-03T07:16:27.811Z,11.90
2018-11-03T07:18:57.053Z,14.60
2018-11-03T07:21:26.260Z,11.07
2018-11-03T07:23:55.445Z,16.13
2018-11-03T07:26:24.655Z,12.23
2018-11-03T07:28:54.044Z,12.30
2018-11-03T07:31:23.245Z,11.80
2018-11-03T07:33:53.335Z,12.80
2018-11-03T07:36:22.543Z,12.20
2018-11-03T07:38:51.732Z,12.33
2018-11-03T07:41:21.002Z,18.40
2018-11-03T07:43:50.223Z,11.10
2018-11-03T07:46:19.416Z,12.53
2018-11-03T07:48:48.900Z,10.67
2018-11-03T07:51:18.035Z,9.60
2018-11-03T07:53:47.221Z,10.97
2018-11-03T07:56:16.603Z,11.57
2018-11-03T07:58:46.000Z,11.10
2018-11-03T08:01:15.276Z,12.73
2018-11-03T08:03:45.071Z,12.63
2018-11-03T08:06:14.247Z,12.13
2018-11-03T08:08:44.371Z,12.53
2018-11-03T08:11:13.581Z,12.00
2018-11-03T08:13:42.779Z,12.17
2018-11-03T08:16:12.016Z,11.90
2018-11-03T08:18:41.563Z,13.20
2018-11-03T08:21:10.777Z,17.73
2018-11-03T08:23:39.969Z,12.03
2018-11-03T08:26:09.182Z,12.20
2018-11-03T08:28:38.379Z,10.37
2018-11-03T08:31:07.591Z,10.33
2018-11-03T08:33:36.797Z,11.00
2018-11-03T08:36:06.476Z,11.73
2018-11-03T08:38:36.006Z,12.50
2018-11-03T08:41:06.211Z,15.80
2018-11-03T08:43:35.600Z,13.17
2018-11-03T08:46:05.523Z,12.50
2018-11-03T08:48:34.792Z,13.07
2018-11-03T08:51:03.945Z,13.77
2018-11-03T08:53:34.868Z,11.97
2018-11-03T08:56:04.264Z,12.80
2018-11-03T08:58:33.803Z,15.50
2018-11-03T09:01:05.742Z,18.37
2018-11-03T09:03:37.299Z,13.60
2018-11-03T09:06:07.048Z,16.03
2018-11-03T09:08:36.531Z,12.87
2018-11-03T09:11:05.919Z,17.00
2018-11-03T09:13:35.133Z,12.77
2018-11-03T09:16:04.380Z,21.07
2018-11-03T09:18:33.604Z,15.87
2018-11-03T09:21:03.241Z,12.37
2018-11-03T09:23:34.731Z,12.57
2018-11-03T09:26:06.640Z,10.83
2018-11-03T09:28:35.884Z,11.37
2018-11-03T09:31:05.204Z,19.00
2018-11-03T09:33:34.476Z,15.90
2018-11-03T09:36:03.828Z,12.67
2018-11-03T09:38:33.401Z,12.97
2018-11-03T09:41:02.873Z,13.47
2018-11-03T09:43:32.193Z,15.23
2018-11-03T09:46:01.313Z,13.93
2018-11-03T09:48:30.817Z,18.73
2018-11-03T09:51:00.168Z,15.10
2018-11-03T09:53:29.510Z,17.70
2018-11-03T09:55:58.755Z,15.03
2018-11-03T09:58:27.947Z,14.80
2018-11-03T10:00:57.383Z,15.20
2018-11-03T10:03:26.967Z,14.10
2018-11-03T10:05:56.284Z,15.93
2018-11-03T10:08:25.527Z,15.37
2018-11-03T10:10:54.940Z,14.87
2018-11-03T10:13:24.131Z,14.53
2018-11-03T10:15:53.421Z,17.43
2018-11-03T10:18:22.593Z,15.23
2018-11-03T10:20:51.827Z,16.00
2018-11-03T10:23:22.356Z,14.30
2018-11-03T10:25:51.876Z,16.67
2018-11-03T10:28:21.078Z,15.73
2018-11-03T10:30:50.589Z,16.37
2018-11-03T10:33:19.900Z,15.00
2018-11-03T10:35:50.335Z,18.13
2018-11-03T10:38:19.603Z,15.07
2018-11-03T10:40:48.999Z,17.10
2018-11-03T10:43:18.219Z,16.40
2018-11-03T10:45:47.463Z,15.63
2018-11-03T10:48:17.111Z,18.17
2018-11-03T10:50:46.399Z,16.80
2018-11-03T10:53:15.747Z,15.87
2018-11-03T10:55:45.013Z,15.40
2018-11-03T10:58:14.392Z,16.40
2018-11-03T11:00:49.106Z,21.40
2018-11-03T11:03:23.468Z,16.57
2018-11-03T11:05:57.273Z,15.90
2018-11-03T11:08:31.767Z,16.83
2018-11-03T11:12:16.292Z,15.00
2018-11-03T11:14:45.491Z,16.73
2018-11-03T11:17:14.748Z,16.20
2018-11-03T11:19:43.987Z,16.70
2018-11-03T11:22:13.240Z,15.90
2018-11-03T11:24:42.501Z,15.90
2018-11-03T11:27:12.167Z,18.97
2018-11-03T11:29:41.368Z,18.00
2018-11-03T11:32:10.584Z,17.27
2018-11-03T11:34:40.788Z,17.80
2018-11-03T11:37:11.332Z,17.00
2018-11-03T11:39:40.652Z,17.47
2018-11-03T11:42:10.036Z,16.13
2018-11-03T11:44:39.607Z,19.10
2018-11-03T11:47:08.828Z,16.37
2018-11-03T11:49:38.124Z,15.93
2018-11-03T11:52:07.467Z,17.73
2018-11-03T11:54:37.003Z,22.77
2018-11-03T11:57:06.335Z,17.77
2018-11-03T11:59:35.611Z,21.00
2018-11-03T12:02:05.472Z,17.70
2018-11-03T12:04:34.865Z,17.63
2018-11-03T12:07:04.144Z,18.93
2018-11-03T12:09:33.464Z,16.83
2018-11-03T12:12:02.744Z,17.57
2018-11-03T12:14:31.956Z,17.70
2018-11-03T12:17:01.193Z,16.10
2018-11-03T12:19:30.418Z,16.03
2018-11-03T12:21:59.907Z,18.80
2018-11-03T12:24:29.199Z,16.23
2018-11-03T12:26:58.749Z,16.23
2018-11-03T12:29:29.023Z,16.90
2018-11-03T12:31:58.784Z,19.30
2018-11-03T12:34:28.340Z,17.30
2018-11-03T12:36:57.967Z,17.30
2018-11-03T12:39:27.462Z,15.93
2018-11-03T12:41:56.826Z,17.30
2018-11-03T12:44:26.140Z,19.30
2018-11-03T12:46:55.443Z,18.40
2018-11-03T12:49:24.705Z,17.30
2018-11-03T12:51:58.041Z,15.63
2018-11-03T12:54:27.352Z,16.60
2018-11-03T12:56:58.666Z,16.90
2018-11-03T12:59:28.184Z,17.70
2018-11-03T13:01:57.327Z,17.47
2018-11-03T13:04:26.620Z,18.17
2018-11-03T13:06:56.384Z,21.00
2018-11-03T13:09:25.922Z,16.47
2018-11-03T13:11:55.919Z,15.90
2018-11-03T13:14:25.432Z,20.10
2018-11-03T13:16:55.056Z,16.40
2018-11-03T13:19:24.560Z,17.30
2018-11-03T13:21:54.003Z,17.27
2018-11-03T13:24:23.542Z,18.70
2018-11-03T13:26:52.800Z,16.17
2018-11-03T13:29:23.355Z,16.40
2018-11-03T13:31:54.110Z,18.30
2018-11-03T13:34:23.468Z,18.17
2018-11-03T13:36:53.025Z,19.47
2018-11-03T13:39:22.378Z,16.17
2018-11-03T13:41:51.679Z,17.83
2018-11-03T13:44:22.579Z,17.43
2018-11-03T13:46:51.835Z,16.40
2018-11-03T13:49:23.873Z,22.53
2018-11-03T13:51:59.658Z,17.87
2018-11-03T13:54:29.569Z,19.00
2018-11-03T13:56:58.902Z,17.23
2018-11-03T13:59:28.128Z,19.33
2018-11-03T14:01:58.388Z,16.97
2018-11-03T14:04:27.690Z,16.70
2018-11-03T14:06:58.248Z,25.20
2018-11-03T14:09:27.511Z,17.60
2018-11-03T14:11:56.869Z,16.80
2018-11-03T14:14:26.130Z,22.33
2018-11-03T14:16:56.958Z,18.03
2018-11-03T14:19:28.384Z,16.23
2018-11-03T14:21:59.013Z,19.40
2018-11-03T14:24:28.527Z,19.50
2018-11-03T14:26:57.816Z,18.10
2018-11-03T14:29:29.277Z,16.73
2018-11-03T14:31:58.587Z,16.67
2018-11-03T14:34:27.863Z,17.00
2018-11-03T14:36:58.679Z,23.00
2018-11-03T14:39:28.063Z,18.10
2018-11-03T14:41:57.567Z,16.80
2018-11-03T14:44:26.992Z,17.97
2018-11-03T14:46:56.680Z,21.50
2018-11-03T14:49:26.144Z,17.53
2018-11-03T14:51:55.575Z,17.17
2018-11-03T14:54:25.051Z,18.00
2018-11-03T14:56:56.747Z,19.60
2018-11-03T14:59:26.087Z,16.13
2018-11-03T15:01:55.422Z,18.07
2018-11-03T15:04:24.722Z,20.43
2018-11-03T15:06:54.043Z,17.17
2018-11-03T15:09:23.288Z,16.97
2018-11-03T15:11:52.651Z,19.90
2018-11-03T15:14:22.198Z,22.23
2018-11-03T15:16:52.546Z,16.77
2018-11-03T15:19:22.612Z,18.47
2018-11-03T15:21:52.891Z,16.90
2018-11-03T15:24:22.187Z,17.43
2018-11-03T15:26:52.461Z,16.50
2018-11-03T15:29:21.727Z,17.17
2018-11-03T15:31:52.219Z,16.20
2018-11-03T15:34:23.951Z,16.07
2018-11-03T15:36:53.475Z,16.57
2018-11-03T15:39:23.235Z,16.77
2018-11-03T15:41:52.587Z,15.43
2018-11-03T15:44:23.073Z,15.47
2018-11-03T15:46:52.345Z,16.17
2018-11-03T15:49:21.716Z,15.80
2018-11-03T15:51:50.988Z,18.03
2018-11-03T15:54:21.488Z,16.30
2018-11-03T15:56:51.031Z,17.30
2018-11-03T15:59:26.003Z,22.07
2018-11-03T16:01:55.599Z,18.67
2018-11-03T16:04:26.271Z,23.70
2018-11-03T16:06:55.702Z,18.90
2018-11-03T16:09:24.975Z,21.90
2018-11-03T16:11:54.425Z,16.63
2018-11-03T16:14:23.859Z,16.53
2018-11-03T16:16:54.368Z,20.33
2018-11-03T16:19:23.722Z,19.57
2018-11-03T16:21:52.995Z,17.83
2018-11-03T16:24:22.345Z,16.77
2018-11-03T16:26:51.681Z,20.40
2018-11-03T16:29:20.914Z,18.50
2018-11-03T16:31:50.284Z,24.00
2018-11-03T16:34:19.580Z,18.40
2018-11-03T16:36:50.324Z,18.67
2018-11-03T16:39:19.904Z,18.60
2018-11-03T16:41:50.191Z,20.07
2018-11-03T16:44:20.726Z,19.90
2018-11-03T16:46:50.960Z,17.77
2018-11-03T16:49:21.678Z,20.70
2018-11-03T16:51:51.068Z,19.53
2018-11-03T16:54:20.416Z,17.83
2018-11-03T16:56:51.459Z,19.30
2018-11-03T16:59:20.796Z,18.43
2018-11-03T17:01:50.444Z,17.53
2018-11-03T17:04:20.406Z,15.87
2018-11-03T17:06:51.015Z,18.20
2018-11-03T17:09:20.144Z,20.87
2018-11-03T17:11:49.497Z,21.90
2018-11-03T17:14:19.992Z,17.83
2018-11-03T17:16:49.263Z,19.97
2018-11-03T17:19:22.941Z,21.97
2018-11-03T17:21:53.410Z,17.77
2018-11-03T17:24:22.617Z,16.80
2018-11-03T17:26:52.142Z,19.07
2018-11-03T17:29:21.624Z,17.57
2018-11-03T17:31:50.823Z,19.00
2018-11-03T17:34:24.368Z,19.10
2018-11-03T17:36:53.616Z,18.73
2018-11-03T17:39:23.156Z,18.77
2018-11-03T17:41:52.514Z,18.57
2018-11-03T17:44:21.933Z,20.03
2018-11-03T17:46:51.615Z,19.20
2018-11-03T17:49:21.151Z,19.57
2018-11-03T17:51:50.583Z,20.43
2018-11-03T17:54:19.885Z,20.23
2018-11-03T17:56:52.520Z,18.70
2018-11-03T17:59:22.771Z,21.47
2018-11-03T18:01:52.087Z,20.80
2018-11-03T18:04:22.060Z,21.63
2018-11-03T18:06:51.339Z,21.37
2018-11-03T18:09:20.680Z,23.47
2018-11-03T18:11:51.346Z,23.57
2018-11-03T18:14:20.855Z,24.40
2018-11-03T18:16:50.067Z,20.83
2018-11-03T18:19:19.643Z,23.00
2018-11-03T18:21:48.852Z,23.70
2018-11-03T18:24:20.155Z,21.57
2018-11-03T18:26:49.454Z,22.17
2018-11-03T18:29:18.663Z,25.00
2018-11-03T18:31:47.864Z,21.13
2018-11-03T18:34:17.102Z,22.37
2018-11-03T18:36:46.350Z,22.33
2018-11-03T18:39:15.699Z,23.33
2018-11-03T18:41:45.379Z,21.67
2018-11-03T18:44:14.783Z,23.37
2018-11-03T18:46:44.551Z,21.60
2018-11-03T18:49:14.036Z,23.17
2018-11-03T18:51:44.595Z,26.90
2018-11-03T18:54:13.859Z,23.80
2018-11-03T18:56:43.146Z,22.10
2018-11-03T18:59:12.531Z,25.90
2018-11-03T19:01:42.331Z,22.80
2018-11-03T19:04:12.134Z,24.63
2018-11-03T19:06:41.399Z,24.20
2018-11-03T19:09:10.709Z,23.20
2018-11-03T19:11:39.823Z,21.70
2018-11-03T19:14:09.296Z,23.90
2018-11-03T19:16:38.567Z,23.30
2018-11-03T19:19:07.801Z,24.40
2018-11-03T19:21:37.319Z,23.10
2018-11-03T19:24:06.894Z,24.00
2018-11-03T19:26:36.337Z,25.10
2018-11-03T19:29:05.748Z,22.43
2018-11-03T19:31:35.214Z,24.57
2018-11-03T19:34:04.829Z,23.00
2018-11-03T19:36:34.114Z,23.97
2018-11-03T19:39:03.648Z,27.60
2018-11-03T19:41:32.923Z,23.90
2018-11-03T19:44:06.276Z,23.70
2018-11-03T19:46:35.628Z,25.50
2018-11-03T19:49:04.904Z,25.47
2018-11-03T19:51:34.323Z,23.97
2018-11-03T19:54:03.570Z,24.87
2018-11-03T19:56:32.847Z,34.20
2018-11-03T19:59:02.192Z,26.20
2018-11-03T20:01:31.789Z,25.20
2018-11-03T20:04:00.977Z,24.63
2018-11-03T20:06:30.399Z,26.87
2018-11-03T20:08:59.627Z,27.30
2018-11-03T20:11:28.881Z,29.20
2018-11-03T20:13:58.321Z,36.47
2018-11-03T20:16:27.499Z,28.37
2018-11-03T20:18:56.844Z,35.10
2018-11-03T20:21:26.391Z,30.50
2018-11-03T20:23:56.729Z,26.50
2018-11-03T20:26:25.907Z,28.43
2018-11-03T20:28:57.677Z,27.40
2018-11-03T20:31:27.257Z,26.80
2018-11-03T20:33:56.656Z,27.50
2018-11-03T20:36:25.993Z,29.57
2018-11-03T20:38:56.490Z,30.83
2018-11-03T20:41:25.704Z,30.17
2018-11-03T20:43:56.026Z,35.30
2018-11-03T20:46:25.227Z,32.07
2018-11-03T20:48:54.925Z,31.93
2018-11-03T20:51:24.466Z,31.00
2018-11-03T20:53:53.919Z,33.57
2018-11-03T20:56:23.079Z,35.20
2018-11-03T20:58:52.432Z,31.90
2018-11-03T21:01:21.696Z,31.33
2018-11-03T21:03:51.032Z,33.77
2018-11-03T21:06:20.271Z,32.63
2018-11-03T21:08:49.551Z,36.83
2018-11-03T21:11:18.908Z,34.90
2018-11-03T21:13:49.211Z,37.27
2018-11-03T21:16:18.686Z,34.27
2018-11-03T21:18:48.193Z,31.13
2018-11-03T21:21:17.680Z,36.97
2018-11-03T21:23:46.996Z,38.60
2018-11-03T21:26:16.280Z,41.07
2018-11-03T21:28:45.528Z,34.70
2018-11-03T21:31:14.919Z,39.33
2018-11-03T21:33:44.223Z,31.87
2018-11-03T21:36:14.000Z,33.20
2018-11-03T21:38:45.560Z,35.37
2018-11-03T21:41:14.909Z,36.53
2018-11-03T21:43:44.120Z,43.13
2018-11-03T21:46:13.760Z,36.60
2018-11-03T21:48:42.941Z,37.73
2018-11-03T21:51:14.491Z,38.03
2018-11-03T21:53:43.851Z,40.07
2018-11-03T21:56:13.271Z,38.13
2018-11-03T21:58:46.739Z,35.40
2018-11-03T22:01:16.020Z,41.53
2018-11-03T22:03:45.426Z,38.20
2018-11-03T22:06:15.626Z,38.70
2018-11-03T22:08:44.844Z,40.87
2018-11-03T22:11:14.709Z,40.67
2018-11-03T22:13:44.093Z,38.77
2018-11-03T22:16:13.803Z,43.17
2018-11-03T22:18:43.004Z,43.93
2018-11-03T22:21:12.251Z,39.47
2018-11-03T22:23:41.472Z,37.57
2018-11-03T22:26:11.328Z,43.30
2018-11-03T22:28:40.759Z,36.37
2018-11-03T22:31:11.317Z,38.27
2018-11-03T22:33:40.595Z,40.20
2018-11-03T22:36:09.840Z,41.63
2018-11-03T22:38:39.211Z,38.97
2018-11-03T22:41:08.452Z,38.67
2018-11-03T22:43:37.879Z,38.63
2018-11-03T22:46:07.260Z,40.57
2018-11-03T22:48:36.753Z,41.57
2018-11-03T22:51:11.472Z,44.30
2018-11-03T22:53:40.691Z,41.80
2018-11-03T22:56:09.901Z,46.30
2018-11-03T22:58:39.290Z,43.60
2018-11-03T23:01:08.802Z,45.07
2018-11-03T23:03:39.334Z,44.60
2018-11-03T23:06:08.547Z,41.40
2018-11-03T23:08:37.771Z,42.73
2018-11-03T23:11:07.183Z,47.07
2018-11-03T23:13:36.416Z,40.80
2018-11-03T23:16:06.451Z,40.53
2018-11-03T23:18:35.682Z,40.23
2018-11-03T23:21:05.245Z,38.57
2018-11-03T23:23:34.452Z,48.60
2018-11-03T23:26:03.699Z,39.17
2018-11-03T23:28:33.752Z,42.20
2018-11-03T23:31:02.941Z,45.00
2018-11-03T23:33:32.388Z,42.57
2018-11-03T23:36:01.783Z,40.37
2018-11-03T23:38:30.980Z,42.53
2018-11-03T23:41:01.252Z,40.13
2018-11-03T23:43:30.619Z,42.67
2018-11-03T23:45:59.820Z,42.83
2018-11-03T23:48:29.206Z,42.80
2018-11-03T23:50:58.461Z,46.43
2018-11-03T23:53:27.802Z,45.13
2018-11-03T23:55:56.995Z,42.53
2018-11-03T23:58:26.391Z,41.40
